Time;durP1;ratioP1;P1;durP2;ratioP2;P2;SDS_P1;SDS_P2;PMS_P1;PMS_P2;Temp;Humidity;BMP_temperature;BMP_pressure;BME280_temperature;BME280_humidity;BME280_pressure;Samples;Min_cycle;Max_cycle;Signal;HPM_P1;HPM_P2
2024/01/16 00:00:16;;;;;;;13.63;5.00;;;;;;;;;;6250351;22;20029;-44
2024/01/16 00:02:43;;;;;;;13.33;5.03;;;;;;;;;;6276757;22;20015;-43
2024/01/16 00:05:13;;;;;;;12.70;5.25;;;;;;;;;;6278551;22;20043;-43
2024/01/16 00:07:41;;;;;;;15.35;5.55;;;;;;;;;;6219139;22;20019;-45
2024/01/16 00:10:10;;;;;;;16.90;5.65;;;;;;;;;;6277997;22;20030;-43
2024/01/16 00:12:40;;;;;;;12.27;4.72;;;;;;;;;;6275277;22;20038;-43
2024/01/16 00:15:08;;;;;;;15.93;5.67;;;;;;;;;;6274952;22;20042;-43
2024/01/16 00:17:37;;;;;;;15.13;5.60;;;;;;;;;;6280158;22;20039;-45
2024/01/16 00:20:06;;;;;;;18.58;5.80;;;;;;;;;;6271316;22;20015;-45
2024/01/16 00:22:35;;;;;;;17.02;4.97;;;;;;;;;;6284211;22;20446;-45
2024/01/16 00:25:04;;;;;;;17.50;5.40;;;;;;;;;;6271911;22;20073;-43
2024/01/16 00:27:32;;;;;;;15.57;5.07;;;;;;;;;;6274611;22;20551;-43
2024/01/16 00:29:59;;;;;;;16.17;5.68;;;;;;;;;;6261294;22;20019;-43
2024/01/16 00:32:27;;;;;;;16.05;5.18;;;;;;;;;;6241617;22;20046;-45
2024/01/16 00:34:55;;;;;;;13.38;5.18;;;;;;;;;;6211582;22;20187;-43
2024/01/16 00:37:22;;;;;;;16.02;5.60;;;;;;;;;;6262565;22;20122;-43
2024/01/16 00:39:55;;;;;;;19.53;6.03;;;;;;;;;;6279786;22;20015;-44
2024/01/16 00:42:29;;;;;;;16.23;5.60;;;;;;;;;;6276213;22;20064;-45
2024/01/16 00:44:57;;;;;;;14.38;5.28;;;;;;;;;;6279514;22;20023;-43
2024/01/16 00:47:24;;;;;;;16.25;5.32;;;;;;;;;;6241078;22;20055;-43
2024/01/16 00:49:52;;;;;;;12.32;4.63;;;;;;;;;;6272638;22;20106;-43
2024/01/16 00:52:20;;;;;;;12.93;4.90;;;;;;;;;;6246581;22;20035;-43
2024/01/16 00:54:50;;;;;;;14.55;5.05;;;;;;;;;;6268314;22;20858;-43
2024/01/16 00:57:20;;;;;;;13.80;5.30;;;;;;;;;;6283026;22;20018;-43
2024/01/16 00:59:47;;;;;;;14.65;5.35;;;;;;;;;;6267003;22;20081;-43
2024/01/16 01:02:15;;;;;;;14.02;5.35;;;;;;;;;;6278886;22;20011;-43
2024/01/16 01:04:43;;;;;;;12.87;5.13;;;;;;;;;;6246523;22;20046;-43
2024/01/16 01:07:13;;;;;;;19.85;5.20;;;;;;;;;;6278257;22;20458;-43
2024/01/16 01:09:42;;;;;;;14.18;5.25;;;;;;;;;;6265816;22;20345;-43
2024/01/16 01:12:09;;;;;;;13.68;5.28;;;;;;;;;;6268496;22;20045;-43
2024/01/16 01:14:39;;;;;;;13.18;4.47;;;;;;;;;;6284384;22;20011;-43
2024/01/16 01:17:07;;;;;;;15.73;4.73;;;;;;;;;;6272101;22;20050;-42
2024/01/16 01:19:36;;;;;;;11.90;4.50;;;;;;;;;;6284878;22;20046;-43
2024/01/16 01:22:04;;;;;;;12.93;5.30;;;;;;;;;;6275371;22;20011;-43
2024/01/16 01:24:32;;;;;;;12.93;4.40;;;;;;;;;;6274431;22;20019;-43
2024/01/16 01:27:00;;;;;;;15.18;5.28;;;;;;;;;;6277844;22;20011;-43
2024/01/16 01:29:28;;;;;;;14.83;5.27;;;;;;;;;;6273574;22;20026;-43
2024/01/16 01:31:57;;;;;;;11.80;4.80;;;;;;;;;;6274067;22;20073;-43
2024/01/16 01:34:25;;;;;;;15.40;5.20;;;;;;;;;;6199414;22;20022;-44
2024/01/16 01:36:53;;;;;;;12.50;4.57;;;;;;;;;;6268286;22;20042;-43
2024/01/16 01:39:21;;;;;;;14.25;5.20;;;;;;;;;;6271413;22;20011;-43
2024/01/16 01:41:48;;;;;;;14.27;5.37;;;;;;;;;;6272189;22;20049;-43
2024/01/16 01:44:16;;;;;;;13.10;4.70;;;;;;;;;;6275851;22;20045;-45
2024/01/16 01:46:45;;;;;;;14.75;4.55;;;;;;;;;;6277654;22;20012;-43
2024/01/16 01:49:16;;;;;;;11.77;4.20;;;;;;;;;;6276130;22;20019;-44
2024/01/16 01:51:44;;;;;;;12.60;4.63;;;;;;;;;;6273982;22;20015;-43
2024/01/16 01:54:12;;;;;;;14.80;4.30;;;;;;;;;;6280648;22;20011;-43
2024/01/16 01:56:40;;;;;;;11.23;4.10;;;;;;;;;;6266654;22;20026;-43
2024/01/16 01:59:09;;;;;;;13.93;4.70;;;;;;;;;;6279051;22;20015;-43
2024/01/16 02:01:36;;;;;;;15.70;5.15;;;;;;;;;;6245659;22;20024;-44
2024/01/16 02:04:06;;;;;;;13.60;4.00;;;;;;;;;;6281055;22;20015;-44
2024/01/16 02:06:37;;;;;;;16.23;4.60;;;;;;;;;;6280045;22;20508;-45
2024/01/16 02:09:06;;;;;;;12.57;4.28;;;;;;;;;;6272271;22;20073;-43
2024/01/16 02:11:34;;;;;;;13.45;4.15;;;;;;;;;;6280810;22;20284;-44
2024/01/16 02:14:02;;;;;;;10.93;4.25;;;;;;;;;;6254923;22;20019;-43
2024/01/16 02:16:36;;;;;;;14.50;4.57;;;;;;;;;;6284027;22;20023;-45
2024/01/16 02:19:04;;;;;;;13.50;4.53;;;;;;;;;;6276707;22;20401;-44
2024/01/16 02:21:35;;;;;;;13.02;4.28;;;;;;;;;;6238129;22;20019;-42
2024/01/16 02:24:06;;;;;;;14.73;4.22;;;;;;;;;;6273975;22;20015;-43
2024/01/16 02:26:34;;;;;;;12.75;4.38;;;;;;;;;;6283292;22;20021;-44
2024/01/16 02:29:03;;;;;;;14.05;4.05;;;;;;;;;;6265852;22;20019;-43
2024/01/16 02:31:31;;;;;;;12.97;3.77;;;;;;;;;;6254128;22;20027;-43
2024/01/16 02:33:59;;;;;;;11.13;3.80;;;;;;;;;;6212763;22;20290;-43
2024/01/16 02:36:28;;;;;;;10.70;4.45;;;;;;;;;;6277453;22;20050;-44
2024/01/16 02:38:56;;;;;;;10.65;4.50;;;;;;;;;;6271377;22;20026;-43
2024/01/16 02:41:25;;;;;;;13.40;4.75;;;;;;;;;;6251145;22;20419;-43
2024/01/16 02:43:53;;;;;;;8.77;3.50;;;;;;;;;;6270638;22;20019;-44
2024/01/16 02:46:21;;;;;;;14.15;3.90;;;;;;;;;;6270587;22;20031;-42
2024/01/16 02:48:48;;;;;;;11.65;4.22;;;;;;;;;;6277657;22;20039;-43
2024/01/16 02:51:16;;;;;;;11.88;4.30;;;;;;;;;;6278214;22;20080;-44
2024/01/16 02:53:44;;;;;;;12.23;4.28;;;;;;;;;;6276938;22;20015;-43
2024/01/16 02:56:12;;;;;;;14.37;4.07;;;;;;;;;;6267129;22;20015;-42
2024/01/16 02:58:41;;;;;;;11.55;4.00;;;;;;;;;;6283178;22;20011;-43
2024/01/16 03:01:09;;;;;;;11.82;4.53;;;;;;;;;;6268643;22;20015;-43
2024/01/16 03:03:36;;;;;;;15.23;4.60;;;;;;;;;;6285050;22;20102;-42
2024/01/16 03:06:04;;;;;;;14.45;4.10;;;;;;;;;;6272667;22;20366;-43
2024/01/16 03:08:32;;;;;;;15.00;4.70;;;;;;;;;;6286085;22;20019;-43
2024/01/16 03:11:00;;;;;;;11.85;3.67;;;;;;;;;;6240524;22;20030;-43
2024/01/16 03:13:28;;;;;;;10.48;3.90;;;;;;;;;;6284416;22;20019;-45
2024/01/16 03:15:57;;;;;;;15.02;4.15;;;;;;;;;;6275335;22;20076;-43
2024/01/16 03:18:26;;;;;;;13.23;4.45;;;;;;;;;;6282344;22;20026;-43
2024/01/16 03:20:53;;;;;;;12.73;3.70;;;;;;;;;;6286496;22;20110;-43
2024/01/16 03:23:21;;;;;;;13.32;4.03;;;;;;;;;;6272506;22;20102;-45
2024/01/16 03:25:49;;;;;;;13.38;4.45;;;;;;;;;;6285021;22;20323;-43
2024/01/16 03:28:17;;;;;;;11.43;3.85;;;;;;;;;;6271600;22;20064;-43
2024/01/16 03:30:44;;;;;;;11.38;3.95;;;;;;;;;;6283086;22;20019;-43
2024/01/16 03:33:14;;;;;;;9.80;4.00;;;;;;;;;;6241639;22;20882;-44
2024/01/16 03:35:42;;;;;;;15.15;4.30;;;;;;;;;;6248131;22;20108;-43
2024/01/16 03:38:09;;;;;;;13.15;4.53;;;;;;;;;;6270537;22;20043;-43
2024/01/16 03:40:37;;;;;;;15.63;4.28;;;;;;;;;;6282447;22;20015;-43
2024/01/16 03:43:06;;;;;;;14.32;4.63;;;;;;;;;;6272476;22;20065;-44
2024/01/16 03:45:33;;;;;;;11.70;4.27;;;;;;;;;;6265089;22;20026;-42
2024/01/16 03:48:01;;;;;;;11.77;4.60;;;;;;;;;;6281100;22;20453;-43
2024/01/16 03:50:30;;;;;;;12.88;4.70;;;;;;;;;;6277026;22;20019;-42
2024/01/16 03:52:58;;;;;;;13.02;4.57;;;;;;;;;;6276441;22;20015;-43
2024/01/16 03:55:26;;;;;;;13.13;4.72;;;;;;;;;;6282968;22;20019;-43
2024/01/16 03:57:53;;;;;;;13.77;4.77;;;;;;;;;;6274722;22;20015;-42
2024/01/16 04:00:21;;;;;;;13.07;4.50;;;;;;;;;;6282858;22;20015;-44
2024/01/16 04:02:49;;;;;;;12.45;4.50;;;;;;;;;;6277213;22;20015;-44
2024/01/16 04:05:17;;;;;;;13.60;4.20;;;;;;;;;;6278319;22;20020;-43
2024/01/16 04:07:46;;;;;;;11.05;4.10;;;;;;;;;;6268851;22;20035;-43
2024/01/16 04:10:14;;;;;;;14.43;4.07;;;;;;;;;;6286049;22;20019;-45
2024/01/16 04:12:42;;;;;;;12.90;4.13;;;;;;;;;;6277931;22;20638;-43
2024/01/16 04:15:10;;;;;;;8.90;3.50;;;;;;;;;;6274935;22;20038;-44
2024/01/16 04:17:38;;;;;;;10.73;3.72;;;;;;;;;;6281897;22;20015;-43
2024/01/16 04:20:06;;;;;;;8.52;3.53;;;;;;;;;;6284228;22;20479;-43
2024/01/16 04:22:34;;;;;;;13.67;3.43;;;;;;;;;;6275335;22;20019;-42
2024/01/16 04:25:07;;;;;;;10.90;4.00;;;;;;;;;;6272990;22;20011;-44
2024/01/16 04:27:36;;;;;;;10.15;3.58;;;;;;;;;;6285613;22;20019;-43
2024/01/16 04:30:05;;;;;;;10.43;3.50;;;;;;;;;;6269902;22;20020;-43
2024/01/16 04:32:32;;;;;;;15.15;3.33;;;;;;;;;;6246721;22;20070;-43
2024/01/16 04:35:00;;;;;;;11.63;3.90;;;;;;;;;;6231635;22;20020;-42
2024/01/16 04:37:28;;;;;;;10.70;3.53;;;;;;;;;;6270842;22;20037;-43
2024/01/16 04:39:57;;;;;;;10.75;3.60;;;;;;;;;;6266037;22;20015;-42
2024/01/16 04:42:28;;;;;;;10.50;3.70;;;;;;;;;;6284899;22;20027;-45
2024/01/16 04:44:56;;;;;;;10.70;3.40;;;;;;;;;;6231029;22;20019;-44
2024/01/16 04:47:23;;;;;;;11.27;3.63;;;;;;;;;;6281160;22;20015;-44
2024/01/16 04:49:51;;;;;;;10.60;3.55;;;;;;;;;;6270511;22;20125;-43
2024/01/16 04:52:19;;;;;;;11.35;3.38;;;;;;;;;;6275659;22;20023;-44
2024/01/16 04:54:51;;;;;;;10.75;3.13;;;;;;;;;;6283869;22;20047;-44
2024/01/16 04:57:20;;;;;;;8.90;2.80;;;;;;;;;;6284793;22;20015;-42
2024/01/16 04:59:49;;;;;;;11.47;3.27;;;;;;;;;;6258857;22;20019;-44
2024/01/16 05:02:18;;;;;;;10.25;3.20;;;;;;;;;;6284983;22;20019;-43
2024/01/16 05:04:49;;;;;;;13.00;3.28;;;;;;;;;;6287650;22;20039;-43
2024/01/16 05:07:16;;;;;;;11.13;3.55;;;;;;;;;;6260840;22;20579;-43
2024/01/16 05:09:48;;;;;;;9.43;3.20;;;;;;;;;;6279683;22;20023;-43
2024/01/16 05:12:15;;;;;;;9.90;3.70;;;;;;;;;;6280406;22;20793;-44
2024/01/16 05:14:43;;;;;;;14.25;4.15;;;;;;;;;;6266567;22;20015;-46
2024/01/16 05:17:12;;;;;;;9.00;3.10;;;;;;;;;;6286340;22;20391;-42
2024/01/16 05:19:40;;;;;;;11.35;3.58;;;;;;;;;;6280594;22;20019;-44
2024/01/16 05:22:07;;;;;;;13.90;3.33;;;;;;;;;;6268678;22;20015;-45
2024/01/16 05:24:35;;;;;;;11.77;3.83;;;;;;;;;;6277339;22;20023;-43
2024/01/16 05:27:04;;;;;;;9.52;3.47;;;;;;;;;;6272879;22;20015;-43
2024/01/16 05:29:32;;;;;;;11.20;3.33;;;;;;;;;;6283950;22;20037;-43
2024/01/16 05:32:00;;;;;;;10.85;3.30;;;;;;;;;;6245489;22;20069;-42
2024/01/16 05:34:29;;;;;;;9.18;3.78;;;;;;;;;;6200861;22;20068;-43
2024/01/16 05:36:57;;;;;;;9.17;3.30;;;;;;;;;;6261169;22;20011;-44
2024/01/16 05:39:24;;;;;;;10.23;3.33;;;;;;;;;;6279219;22;20084;-42
2024/01/16 05:41:53;;;;;;;11.88;3.53;;;;;;;;;;6275798;22;20019;-42
2024/01/16 05:44:21;;;;;;;11.65;3.13;;;;;;;;;;6281255;22;20039;-44
2024/01/16 05:46:48;;;;;;;9.60;3.10;;;;;;;;;;6277556;22;20022;-43
2024/01/16 05:49:17;;;;;;;10.13;3.27;;;;;;;;;;6266347;22;20034;-43
2024/01/16 05:51:47;;;;;;;11.52;3.47;;;;;;;;;;6272739;22;20027;-44
2024/01/16 05:54:14;;;;;;;9.70;2.88;;;;;;;;;;6263281;22;20050;-43
2024/01/16 05:56:43;;;;;;;12.25;2.95;;;;;;;;;;6270133;22;20350;-42
2024/01/16 05:59:10;;;;;;;12.70;3.15;;;;;;;;;;6265740;22;20420;-43
2024/01/16 06:01:38;;;;;;;10.20;2.97;;;;;;;;;;6270995;22;20112;-43
2024/01/16 06:04:06;;;;;;;9.50;2.40;;;;;;;;;;6262310;22;20022;-43
2024/01/16 06:06:34;;;;;;;11.48;3.70;;;;;;;;;;6269808;22;20106;-44
2024/01/16 06:09:05;;;;;;;12.73;2.95;;;;;;;;;;6258799;22;20118;-44
2024/01/16 06:11:34;;;;;;;12.90;3.30;;;;;;;;;;6275927;22;20068;-43
2024/01/16 06:14:02;;;;;;;10.80;2.90;;;;;;;;;;6241984;22;20061;-45
2024/01/16 06:16:31;;;;;;;10.15;3.28;;;;;;;;;;6284825;22;20015;-43
2024/01/16 06:18:58;;;;;;;11.68;3.35;;;;;;;;;;6272431;22;20409;-43
2024/01/16 06:21:27;;;;;;;9.52;3.03;;;;;;;;;;6270548;22;20019;-45
2024/01/16 06:23:55;;;;;;;10.73;3.03;;;;;;;;;;6269486;22;20030;-44
2024/01/16 06:26:24;;;;;;;9.27;3.07;;;;;;;;;;6260302;22;20015;-43
2024/01/16 06:28:53;;;;;;;8.93;2.53;;;;;;;;;;6241516;22;20049;-43
2024/01/16 06:31:21;;;;;;;7.65;2.40;;;;;;;;;;6264354;22;20015;-43
2024/01/16 06:33:49;;;;;;;11.65;2.10;;;;;;;;;;6210172;22;20026;-43
2024/01/16 06:36:17;;;;;;;9.48;2.00;;;;;;;;;;6254524;22;20447;-43
2024/01/16 06:38:45;;;;;;;7.87;2.63;;;;;;;;;;6268429;22;20019;-45
2024/01/16 06:41:13;;;;;;;12.13;2.13;;;;;;;;;;6270586;22;20054;-44
2024/01/16 06:43:42;;;;;;;7.75;1.65;;;;;;;;;;6281728;22;20019;-43
2024/01/16 06:46:10;;;;;;;11.02;1.75;;;;;;;;;;6267559;22;20025;-43
2024/01/16 06:48:39;;;;;;;6.97;1.95;;;;;;;;;;6239685;22;20030;-43
2024/01/16 06:51:07;;;;;;;11.17;1.90;;;;;;;;;;6259169;22;20417;-44
2024/01/16 06:53:35;;;;;;;6.22;1.33;;;;;;;;;;6273234;22;20412;-44
2024/01/16 06:56:04;;;;;;;6.90;1.60;;;;;;;;;;6267476;22;20030;-43
2024/01/16 06:58:32;;;;;;;6.28;1.80;;;;;;;;;;6275034;22;20095;-44
2024/01/16 07:01:01;;;;;;;6.20;1.67;;;;;;;;;;6274645;22;20011;-42
2024/01/16 07:03:30;;;;;;;11.40;1.87;;;;;;;;;;6266874;22;20077;-45
2024/01/16 07:05:57;;;;;;;5.35;1.17;;;;;;;;;;6271578;22;20015;-44
2024/01/16 07:08:42;;;;;;;5.25;1.50;;;;;;;;;;6277925;22;20041;-45
2024/01/16 07:11:13;;;;;;;4.88;1.10;;;;;;;;;;6269355;22;20019;-44
2024/01/16 07:13:41;;;;;;;6.57;1.58;;;;;;;;;;6276511;22;20072;-43
2024/01/16 07:16:12;;;;;;;7.63;1.43;;;;;;;;;;6257819;22;20018;-45
2024/01/16 07:18:40;;;;;;;8.65;1.60;;;;;;;;;;6270326;22;20099;-43
2024/01/16 07:21:18;;;;;;;8.35;1.83;;;;;;;;;;6280495;22;20019;-43
2024/01/16 07:23:46;;;;;;;8.98;1.65;;;;;;;;;;6266691;22;20069;-43
2024/01/16 07:26:14;;;;;;;7.10;1.40;;;;;;;;;;6272562;22;20015;-44
2024/01/16 07:28:42;;;;;;;7.87;1.63;;;;;;;;;;6239950;22;20114;-43
2024/01/16 07:31:09;;;;;;;7.80;1.20;;;;;;;;;;6274228;22;20022;-42
2024/01/16 07:33:46;;;;;;;8.48;1.40;;;;;;;;;;6221056;22;20450;-43
2024/01/16 07:36:15;;;;;;;7.20;1.48;;;;;;;;;;6247825;22;20015;-44
2024/01/16 07:38:43;;;;;;;6.72;1.40;;;;;;;;;;6268665;22;20043;-43
2024/01/16 07:41:10;;;;;;;6.60;1.00;;;;;;;;;;6255400;22;20111;-45
2024/01/16 07:43:38;;;;;;;7.07;1.30;;;;;;;;;;6273417;22;20094;-44
2024/01/16 07:46:06;;;;;;;7.25;1.13;;;;;;;;;;6272192;22;20019;-43
2024/01/16 07:48:33;;;;;;;6.43;1.13;;;;;;;;;;6248183;22;20018;-44
2024/01/16 07:51:03;;;;;;;7.72;1.55;;;;;;;;;;6274945;22;20023;-43
2024/01/16 07:53:30;;;;;;;6.77;1.27;;;;;;;;;;6282707;22;20042;-44
2024/01/16 07:55:58;;;;;;;5.68;1.30;;;;;;;;;;6271649;22;20016;-43
2024/01/16 07:58:26;;;;;;;5.03;0.77;;;;;;;;;;6282797;22;20016;-43
2024/01/16 08:00:54;;;;;;;6.47;1.00;;;;;;;;;;6265291;22;20007;-43
2024/01/16 08:03:21;;;;;;;7.68;1.10;;;;;;;;;;6277232;22;20401;-44
2024/01/16 08:05:49;;;;;;;5.90;1.00;;;;;;;;;;6250826;22;20019;-42
2024/01/16 08:08:18;;;;;;;5.53;1.00;;;;;;;;;;6243738;22;20061;-43
2024/01/16 08:10:48;;;;;;;7.15;1.40;;;;;;;;;;6260088;22;20485;-44
2024/01/16 08:13:16;;;;;;;6.43;1.20;;;;;;;;;;6264549;22;20015;-45
2024/01/16 08:15:44;;;;;;;7.53;1.30;;;;;;;;;;6279116;22;20402;-44
2024/01/16 08:18:11;;;;;;;8.57;1.40;;;;;;;;;;6270070;22;20049;-43
2024/01/16 08:20:53;;;;;;;9.63;1.45;;;;;;;;;;6228495;22;20019;-44
2024/01/16 08:23:23;;;;;;;6.95;1.67;;;;;;;;;;6256958;22;20021;-43
2024/01/16 08:25:52;;;;;;;6.63;1.30;;;;;;;;;;6256978;22;20583;-42
2024/01/16 08:28:19;;;;;;;8.10;1.35;;;;;;;;;;6262611;22;20019;-42
2024/01/16 08:30:51;;;;;;;8.23;1.00;;;;;;;;;;6245093;22;20442;-43
2024/01/16 08:33:20;;;;;;;7.55;1.83;;;;;;;;;;6195997;22;20027;-43
2024/01/16 08:36:00;;;;;;;9.20;1.45;;;;;;;;;;6211920;22;20473;-44
2024/01/16 08:38:32;;;;;;;5.60;1.05;;;;;;;;;;6254983;22;20080;-44
2024/01/16 08:41:00;;;;;;;8.48;1.30;;;;;;;;;;6252076;22;20349;-45
2024/01/16 08:43:28;;;;;;;6.50;1.27;;;;;;;;;;6272452;22;20019;-42
2024/01/16 08:45:56;;;;;;;10.68;1.25;;;;;;;;;;6246151;22;20022;-43
2024/01/16 08:48:23;;;;;;;6.20;1.10;;;;;;;;;;6269864;22;20019;-46
2024/01/16 08:50:51;;;;;;;7.38;1.42;;;;;;;;;;6257721;22;20473;-43
2024/01/16 08:53:20;;;;;;;9.27;1.10;;;;;;;;;;6272696;22;20026;-42
2024/01/16 08:55:50;;;;;;;7.00;1.23;;;;;;;;;;6250416;22;20068;-45
2024/01/16 08:58:17;;;;;;;6.15;0.82;;;;;;;;;;6258379;22;20019;-43
2024/01/16 09:00:45;;;;;;;10.60;1.10;;;;;;;;;;6252491;22;20025;-43
2024/01/16 09:03:13;;;;;;;8.40;1.30;;;;;;;;;;6268156;22;20114;-43
2024/01/16 09:05:45;;;;;;;6.50;1.23;;;;;;;;;;6252280;22;20033;-44
2024/01/16 09:08:13;;;;;;;8.13;1.17;;;;;;;;;;6265040;22;20461;-43
2024/01/16 09:10:41;;;;;;;6.78;1.20;;;;;;;;;;6251324;22;20023;-44
2024/01/16 09:13:12;;;;;;;7.13;1.15;;;;;;;;;;6228927;22;20268;-43
2024/01/16 09:15:40;;;;;;;9.68;1.50;;;;;;;;;;6247262;22;20019;-43
2024/01/16 09:18:08;;;;;;;7.70;1.48;;;;;;;;;;6246524;22;20019;-43
2024/01/16 09:20:36;;;;;;;9.23;1.47;;;;;;;;;;6212919;22;20470;-43
2024/01/16 09:23:04;;;;;;;7.45;1.42;;;;;;;;;;6253496;22;20015;-43
2024/01/16 09:25:32;;;;;;;6.57;1.65;;;;;;;;;;6225360;22;20019;-43
2024/01/16 09:27:59;;;;;;;11.75;1.92;;;;;;;;;;6249332;22;20025;-42
2024/01/16 09:30:28;;;;;;;8.05;1.58;;;;;;;;;;6216406;22;20085;-44
2024/01/16 09:33:01;;;;;;;6.27;1.37;;;;;;;;;;6209218;22;20016;-44
2024/01/16 09:35:29;;;;;;;8.40;1.45;;;;;;;;;;6215007;22;20094;-43
2024/01/16 09:37:58;;;;;;;7.43;1.35;;;;;;;;;;6234230;22;20022;-45
2024/01/16 09:40:27;;;;;;;7.70;1.30;;;;;;;;;;6249276;22;20022;-43
2024/01/16 09:42:54;;;;;;;6.78;1.45;;;;;;;;;;6239525;22;20477;-42
2024/01/16 09:45:22;;;;;;;7.17;1.37;;;;;;;;;;6245755;22;20469;-43
2024/01/16 09:47:53;;;;;;;8.35;1.05;;;;;;;;;;6235502;22;20415;-42
2024/01/16 09:50:23;;;;;;;7.80;1.20;;;;;;;;;;6223366;22;20370;-43
2024/01/16 09:52:50;;;;;;;5.90;1.05;;;;;;;;;;6241576;22;20471;-45
2024/01/16 09:55:19;;;;;;;9.23;1.48;;;;;;;;;;6241067;22;20019;-42
2024/01/16 09:57:52;;;;;;;5.93;0.87;;;;;;;;;;6231712;22;20723;-43
2024/01/16 10:00:20;;;;;;;5.05;1.10;;;;;;;;;;6248303;22;20015;-43
2024/01/16 10:02:48;;;;;;;7.38;1.08;;;;;;;;;;6237094;22;20615;-44
2024/01/16 10:05:18;;;;;;;7.93;1.20;;;;;;;;;;6221608;22;20606;-43
2024/01/16 10:07:47;;;;;;;11.48;1.38;;;;;;;;;;6248986;22;20019;-44
2024/01/16 10:10:16;;;;;;;5.03;1.00;;;;;;;;;;6247748;22;20430;-44
2024/01/16 10:12:59;;;;;;;7.60;0.82;;;;;;;;;;6250962;22;20414;-43
2024/01/16 10:15:31;;;;;;;7.22;1.30;;;;;;;;;;6212238;22;20454;-44
2024/01/16 10:17:59;;;;;;;7.40;1.00;;;;;;;;;;6235997;22;20015;-45
2024/01/16 10:20:36;;;;;;;7.70;1.10;;;;;;;;;;6238509;22;20053;-44
2024/01/16 10:23:04;;;;;;;5.97;0.93;;;;;;;;;;6223154;22;20019;-43
2024/01/16 10:25:32;;;;;;;5.93;1.25;;;;;;;;;;6223221;22;20060;-43
2024/01/16 10:28:07;;;;;;;7.40;1.15;;;;;;;;;;6242519;22;20023;-43
2024/01/16 10:30:35;;;;;;;5.10;1.15;;;;;;;;;;6240289;22;20598;-47
2024/01/16 10:33:16;;;;;;;7.78;1.45;;;;;;;;;;6208890;22;20027;-44
2024/01/16 10:35:46;;;;;;;6.27;1.80;;;;;;;;;;6187165;22;20427;-44
2024/01/16 10:38:21;;;;;;;10.10;2.05;;;;;;;;;;6197699;22;20422;-43
2024/01/16 10:40:48;;;;;;;6.72;1.60;;;;;;;;;;6216340;22;20876;-44
2024/01/16 10:43:18;;;;;;;6.55;1.58;;;;;;;;;;6214213;22;20285;-43
2024/01/16 10:45:46;;;;;;;7.90;1.83;;;;;;;;;;6242265;22;20226;-44
2024/01/16 10:48:15;;;;;;;6.73;1.50;;;;;;;;;;6246336;22;20022;-42
2024/01/16 10:50:43;;;;;;;10.48;1.75;;;;;;;;;;6244906;22;20027;-42
2024/01/16 10:53:16;;;;;;;8.43;1.67;;;;;;;;;;6239898;22;20019;-42
2024/01/16 10:55:50;;;;;;;8.23;1.42;;;;;;;;;;6235194;22;20027;-43
2024/01/16 10:58:20;;;;;;;5.30;1.20;;;;;;;;;;6251768;22;20086;-43
2024/01/16 11:00:50;;;;;;;8.03;1.30;;;;;;;;;;6240310;22;20023;-43
2024/01/16 11:03:23;;;;;;;6.38;1.33;;;;;;;;;;6251022;22;20106;-44
2024/01/16 11:05:53;;;;;;;7.95;1.35;;;;;;;;;;6228779;22;20115;-43
2024/01/16 11:08:27;;;;;;;5.40;1.10;;;;;;;;;;6271918;22;20011;-43
2024/01/16 11:10:55;;;;;;;6.28;1.00;;;;;;;;;;6259987;22;20034;-43
2024/01/16 11:13:23;;;;;;;4.83;1.00;;;;;;;;;;6239067;22;20038;-43
2024/01/16 11:15:51;;;;;;;5.95;1.13;;;;;;;;;;6274253;22;20023;-43
2024/01/16 11:18:18;;;;;;;5.35;0.80;;;;;;;;;;6259850;22;20015;-44
2024/01/16 11:20:47;;;;;;;12.25;1.30;;;;;;;;;;6266577;22;20011;-42
2024/01/16 11:23:35;;;;;;;4.57;1.02;;;;;;;;;;6255580;22;20816;-42
2024/01/16 11:26:18;;;;;;;5.23;0.90;;;;;;;;;;6272862;22;20080;-42
2024/01/16 11:28:47;;;;;;;6.63;1.30;;;;;;;;;;6257136;22;20331;-43
2024/01/16 11:31:28;;;;;;;6.30;1.10;;;;;;;;;;6270790;22;20084;-43
2024/01/16 11:33:56;;;;;;;3.83;0.80;;;;;;;;;;6185129;22;20022;-44
2024/01/16 11:36:42;;;;;;;6.35;1.05;;;;;;;;;;6246278;22;20053;-43
2024/01/16 11:39:20;;;;;;;10.90;1.57;;;;;;;;;;6240513;22;20084;-44
2024/01/16 11:41:49;;;;;;;8.32;1.30;;;;;;;;;;6233749;22;20572;-43
2024/01/16 11:44:35;;;;;;;7.97;1.50;;;;;;;;;;6231316;22;20854;-43
2024/01/16 11:47:04;;;;;;;6.72;1.08;;;;;;;;;;6235423;22;20026;-43
2024/01/16 11:49:32;;;;;;;7.10;1.40;;;;;;;;;;6236609;22;20026;-43
2024/01/16 11:52:00;;;;;;;6.73;1.40;;;;;;;;;;6253550;22;20343;-43
2024/01/16 11:54:30;;;;;;;7.32;1.30;;;;;;;;;;6234516;22;20523;-43
2024/01/16 11:57:14;;;;;;;10.13;1.40;;;;;;;;;;6249936;22;20023;-44
2024/01/16 12:00:00;;;;;;;13.27;1.23;;;;;;;;;;6238112;22;20038;-42
2024/01/16 12:02:36;;;;;;;7.90;1.35;;;;;;;;;;6236228;22;20023;-45
2024/01/16 12:05:07;;;;;;;8.63;1.40;;;;;;;;;;6230938;22;20015;-42
2024/01/16 12:07:46;;;;;;;9.55;1.88;;;;;;;;;;6236673;22;20015;-44
2024/01/16 12:10:16;;;;;;;5.85;1.58;;;;;;;;;;6256460;22;20015;-46
2024/01/16 12:12:44;;;;;;;7.45;2.10;;;;;;;;;;6236949;22;20019;-43
2024/01/16 12:15:17;;;;;;;7.78;2.20;;;;;;;;;;6238987;22;20299;-44
2024/01/16 12:17:58;;;;;;;9.63;2.33;;;;;;;;;;6257309;22;20023;-42
2024/01/16 12:20:28;;;;;;;5.43;1.42;;;;;;;;;;6243027;22;20519;-44
2024/01/16 12:22:57;;;;;;;8.57;1.30;;;;;;;;;;6236372;22;20473;-42
2024/01/16 12:25:27;;;;;;;11.55;1.70;;;;;;;;;;6220343;22;20094;-42
2024/01/16 12:28:19;;;;;;;7.38;1.75;;;;;;;;;;6232952;22;20523;-42
2024/01/16 12:30:59;;;;;;;8.23;1.33;;;;;;;;;;6253460;22;20084;-42
2024/01/16 12:33:29;;;;;;;7.85;1.60;;;;;;;;;;6209685;22;20094;-42
2024/01/16 12:36:02;;;;;;;6.70;1.50;;;;;;;;;;6211455;22;20019;-44
2024/01/16 12:38:30;;;;;;;5.95;1.60;;;;;;;;;;6242622;22;20430;-43
2024/01/16 12:41:01;;;;;;;7.20;1.25;;;;;;;;;;6247868;22;20099;-43
2024/01/16 12:43:30;;;;;;;6.13;1.20;;;;;;;;;;6239242;22;20035;-43
2024/01/16 12:45:58;;;;;;;5.10;0.82;;;;;;;;;;6226501;22;20043;-42
2024/01/16 12:48:26;;;;;;;4.72;0.88;;;;;;;;;;6253433;22;20019;-42
2024/01/16 12:50:59;;;;;;;7.93;1.13;;;;;;;;;;6217499;22;20011;-43
2024/01/16 12:53:27;;;;;;;5.50;0.98;;;;;;;;;;6248921;22;20068;-44
2024/01/16 12:55:58;;;;;;;5.03;0.97;;;;;;;;;;6228024;22;20487;-42
2024/01/16 12:58:34;;;;;;;6.72;1.10;;;;;;;;;;6220036;22;20053;-42
2024/01/16 13:01:17;;;;;;;8.55;1.23;;;;;;;;;;6240819;22;20020;-45
2024/01/16 13:03:55;;;;;;;7.65;1.20;;;;;;;;;;6231935;22;20019;-43
2024/01/16 13:06:23;;;;;;;8.50;1.15;;;;;;;;;;6245670;22;20301;-42
2024/01/16 13:08:52;;;;;;;4.43;1.10;;;;;;;;;;6248759;22;20016;-43
2024/01/16 13:11:28;;;;;;;5.25;0.98;;;;;;;;;;6245263;22;20015;-44
2024/01/16 13:14:07;;;;;;;6.65;1.13;;;;;;;;;;6231187;22;20019;-42
2024/01/16 13:16:34;;;;;;;7.50;1.00;;;;;;;;;;6231530;22;20400;-43
2024/01/16 13:19:05;;;;;;;6.30;0.88;;;;;;;;;;6245864;22;20613;-43
2024/01/16 13:21:33;;;;;;;5.30;0.80;;;;;;;;;;6236337;22;20015;-42
2024/01/16 13:24:02;;;;;;;5.65;1.20;;;;;;;;;;6252732;22;20030;-43
2024/01/16 13:26:30;;;;;;;8.70;0.98;;;;;;;;;;6221177;22;20023;-44
2024/01/16 13:28:57;;;;;;;5.90;0.95;;;;;;;;;;6244375;22;20037;-43
2024/01/16 13:31:27;;;;;;;5.50;1.45;;;;;;;;;;6246329;22;20018;-46
2024/01/16 13:33:56;;;;;;;7.13;1.40;;;;;;;;;;6181987;22;20601;-44
2024/01/16 13:36:24;;;;;;;5.10;0.90;;;;;;;;;;6217690;22;20695;-42
2024/01/16 13:39:12;;;;;;;4.55;1.20;;;;;;;;;;6246337;22;20518;-42
2024/01/16 13:41:42;;;;;;;4.68;1.17;;;;;;;;;;6261456;22;20442;-41
2024/01/16 13:44:10;;;;;;;4.90;1.17;;;;;;;;;;6255781;22;20687;-41
2024/01/16 13:46:39;;;;;;;7.20;0.83;;;;;;;;;;6267725;22;20327;-43
2024/01/16 13:49:26;;;;;;;6.50;1.17;;;;;;;;;;6254432;22;20050;-46
2024/01/16 13:51:55;;;;;;;4.40;0.60;;;;;;;;;;6261165;22;20057;-41
2024/01/16 13:54:22;;;;;;;5.97;1.00;;;;;;;;;;6252028;22;20023;-43
2024/01/16 13:56:50;;;;;;;6.70;1.02;;;;;;;;;;6262384;22;20015;-43
2024/01/16 13:59:33;;;;;;;6.87;0.80;;;;;;;;;;6261338;22;20060;-42
2024/01/16 14:02:04;;;;;;;6.40;0.80;;;;;;;;;;6266220;22;20015;-44
2024/01/16 14:04:31;;;;;;;7.03;0.73;;;;;;;;;;6253589;22;20015;-42
2024/01/16 14:07:01;;;;;;;3.47;0.50;;;;;;;;;;6270112;22;20019;-42
2024/01/16 14:09:41;;;;;;;7.20;0.60;;;;;;;;;;6255311;22;20019;-41
2024/01/16 14:12:13;;;;;;;5.70;0.70;;;;;;;;;;6258967;22;20020;-42
2024/01/16 14:14:41;;;;;;;4.97;0.40;;;;;;;;;;6273732;22;20023;-43
2024/01/16 14:17:11;;;;;;;3.55;0.40;;;;;;;;;;6228784;22;20069;-41
2024/01/16 14:19:39;;;;;;;5.97;0.60;;;;;;;;;;6264626;22;20069;-43
2024/01/16 14:22:08;;;;;;;3.95;0.32;;;;;;;;;;6241516;22;20023;-41
2024/01/16 14:24:37;;;;;;;3.40;0.30;;;;;;;;;;6238010;22;20019;-42
2024/01/16 14:27:06;;;;;;;2.67;0.40;;;;;;;;;;6238723;22;20094;-42
2024/01/16 14:29:36;;;;;;;7.22;0.63;;;;;;;;;;6244310;22;20015;-42
2024/01/16 14:32:05;;;;;;;3.97;0.50;;;;;;;;;;6188255;22;20015;-42
2024/01/16 14:34:35;;;;;;;4.57;0.70;;;;;;;;;;6159202;22;20165;-42
2024/01/16 14:37:03;;;;;;;4.33;0.60;;;;;;;;;;6230943;22;20813;-42
2024/01/16 14:39:30;;;;;;;5.80;0.60;;;;;;;;;;6232001;22;20090;-44
2024/01/16 14:41:59;;;;;;;5.50;0.73;;;;;;;;;;6245794;22;20023;-44
2024/01/16 14:44:26;;;;;;;4.38;0.70;;;;;;;;;;6260210;22;20011;-42
2024/01/16 14:46:56;;;;;;;4.60;0.40;;;;;;;;;;6256166;22;20069;-42
2024/01/16 14:49:24;;;;;;;4.87;0.60;;;;;;;;;;6256048;22;20014;-44
2024/01/16 14:51:55;;;;;;;4.45;0.65;;;;;;;;;;6257234;22;20019;-42